sensor_id;sensor_type;location;lat;lon;timestamp;pressure;altitude;pressure_sealevel;temperature;humidity
21902;BME280;11115;46.038;14.612;2023-10-13T00:00:54;98858.38;;;13.79;100.00
21902;BME280;11115;46.038;14.612;2023-10-13T00:03:27;98863.63;;;13.49;100.00
21902;BME280;11115;46.038;14.612;2023-10-13T00:06:04;98856.88;;;13.33;100.00
21902;BME280;11115;46.038;14.612;2023-10-13T00:08:49;98853.38;;;13.50;100.00
21902;BME280;11115;46.038;14.612;2023-10-13T00:11:23;98848.34;;;13.60;100.00
21902;BME280;11115;46.038;14.612;2023-10-13T00:13:55;98851.28;;;13.64;100.00
21902;BME280;11115;46.038;14.612;2023-10-13T00:16:32;98853.97;;;13.47;100.00
21902;BME280;11115;46.038;14.612;2023-10-13T00:19:08;98852.50;;;13.49;100.00
21902;BME280;11115;46.038;14.612;2023-10-13T00:21:56;98847.09;;;13.44;100.00
21902;BME280;11115;46.038;14.612;2023-10-13T00:24:43;98851.41;;;13.28;100.00
21902;BME280;11115;46.038;14.612;2023-10-13T00:27:20;98850.84;;;13.17;100.00
21902;BME280;11115;46.038;14.612;2023-10-13T00:30:00;98859.56;;;13.24;100.00
21902;BME280;11115;46.038;14.612;2023-10-13T00:32:51;98847.88;;;13.14;100.00
21902;BME280;11115;46.038;14.612;2023-10-13T00:35:31;98845.03;;;13.05;100.00
21902;BME280;11115;46.038;14.612;2023-10-13T00:38:04;98850.28;;;13.06;100.00
21902;BME280;11115;46.038;14.612;2023-10-13T00:40:49;98857.03;;;13.14;100.00
21902;BME280;11115;46.038;14.612;2023-10-13T00:43:36;98853.13;;;13.15;100.00
21902;BME280;11115;46.038;14.612;2023-10-13T00:46:12;98853.00;;;12.98;100.00
21902;BME280;11115;46.038;14.612;2023-10-13T00:48:44;98858.09;;;13.04;100.00
21902;BME280;11115;46.038;14.612;2023-10-13T00:51:21;98861.47;;;13.15;100.00
21902;BME280;11115;46.038;14.612;2023-10-13T00:54:13;98858.13;;;13.27;100.00
21902;BME280;11115;46.038;14.612;2023-10-13T00:56:45;98851.88;;;13.21;100.00
21902;BME280;11115;46.038;14.612;2023-10-13T00:59:28;98849.03;;;13.35;100.00
21902;BME280;11115;46.038;14.612;2023-10-13T01:01:59;98850.06;;;13.48;100.00
21902;BME280;11115;46.038;14.612;2023-10-13T01:04:49;98845.75;;;13.33;100.00
21902;BME280;11115;46.038;14.612;2023-10-13T01:07:20;98843.41;;;13.26;100.00
21902;BME280;11115;46.038;14.612;2023-10-13T01:09:57;98841.50;;;13.35;100.00
21902;BME280;11115;46.038;14.612;2023-10-13T01:12:24;98834.31;;;13.34;100.00
21902;BME280;11115;46.038;14.612;2023-10-13T01:14:55;98839.06;;;13.34;100.00
21902;BME280;11115;46.038;14.612;2023-10-13T01:17:25;98842.75;;;13.29;100.00
21902;BME280;11115;46.038;14.612;2023-10-13T01:20:03;98832.75;;;13.20;100.00
21902;BME280;11115;46.038;14.612;2023-10-13T01:22:40;98829.84;;;13.25;100.00
21902;BME280;11115;46.038;14.612;2023-10-13T01:25:13;98825.22;;;13.20;100.00
21902;BME280;11115;46.038;14.612;2023-10-13T01:27:49;98823.63;;;13.28;100.00
21902;BME280;11115;46.038;14.612;2023-10-13T01:30:22;98839.56;;;13.14;100.00
21902;BME280;11115;46.038;14.612;2023-10-13T01:32:52;98831.28;;;13.22;100.00
21902;BME280;11115;46.038;14.612;2023-10-13T01:35:30;98827.63;;;13.13;100.00
21902;BME280;11115;46.038;14.612;2023-10-13T01:38:11;98825.59;;;13.05;100.00
21902;BME280;11115;46.038;14.612;2023-10-13T01:40:41;98835.56;;;13.06;100.00
21902;BME280;11115;46.038;14.612;2023-10-13T01:43:11;98835.53;;;12.97;100.00
21902;BME280;11115;46.038;14.612;2023-10-13T01:45:44;98828.44;;;12.91;100.00
21902;BME280;11115;46.038;14.612;2023-10-13T01:48:27;98829.72;;;12.85;100.00
21902;BME280;11115;46.038;14.612;2023-10-13T01:50:59;98825.16;;;12.89;100.00
21902;BME280;11115;46.038;14.612;2023-10-13T01:53:32;98823.84;;;12.64;100.00
21902;BME280;11115;46.038;14.612;2023-10-13T01:56:05;98828.59;;;12.50;100.00
21902;BME280;11115;46.038;14.612;2023-10-13T01:58:44;98838.72;;;12.32;100.00
21902;BME280;11115;46.038;14.612;2023-10-13T02:01:22;98841.94;;;12.26;100.00
21902;BME280;11115;46.038;14.612;2023-10-13T02:04:07;98826.91;;;12.40;100.00
21902;BME280;11115;46.038;14.612;2023-10-13T02:06:41;98835.22;;;12.40;100.00
21902;BME280;11115;46.038;14.612;2023-10-13T02:09:10;98847.56;;;12.34;100.00
21902;BME280;11115;46.038;14.612;2023-10-13T02:11:43;98832.78;;;12.25;100.00
21902;BME280;11115;46.038;14.612;2023-10-13T02:14:21;98831.81;;;12.43;100.00
21902;BME280;11115;46.038;14.612;2023-10-13T02:16:54;98825.06;;;12.36;100.00
21902;BME280;11115;46.038;14.612;2023-10-13T02:19:46;98825.19;;;12.53;100.00
21902;BME280;11115;46.038;14.612;2023-10-13T02:22:17;98821.47;;;12.35;100.00
21902;BME280;11115;46.038;14.612;2023-10-13T02:24:54;98817.56;;;12.36;100.00
21902;BME280;11115;46.038;14.612;2023-10-13T02:27:35;98812.41;;;12.43;100.00
21902;BME280;11115;46.038;14.612;2023-10-13T02:30:22;98821.56;;;12.30;100.00
21902;BME280;11115;46.038;14.612;2023-10-13T02:32:52;98817.44;;;12.41;100.00
21902;BME280;11115;46.038;14.612;2023-10-13T02:35:30;98823.75;;;12.20;100.00
21902;BME280;11115;46.038;14.612;2023-10-13T02:38:26;98808.50;;;12.31;100.00
21902;BME280;11115;46.038;14.612;2023-10-13T02:41:12;98816.06;;;12.53;100.00
21902;BME280;11115;46.038;14.612;2023-10-13T02:43:54;98810.41;;;12.58;100.00
21902;BME280;11115;46.038;14.612;2023-10-13T02:46:31;98815.59;;;12.73;100.00
21902;BME280;11115;46.038;14.612;2023-10-13T02:49:03;98811.88;;;12.77;100.00
21902;BME280;11115;46.038;14.612;2023-10-13T02:51:38;98802.91;;;12.81;100.00
21902;BME280;11115;46.038;14.612;2023-10-13T02:54:15;98804.59;;;12.90;100.00
21902;BME280;11115;46.038;14.612;2023-10-13T02:56:49;98815.25;;;12.97;100.00
21902;BME280;11115;46.038;14.612;2023-10-13T02:59:30;98814.94;;;12.98;100.00
21902;BME280;11115;46.038;14.612;2023-10-13T03:02:17;98811.56;;;13.10;100.00
21902;BME280;11115;46.038;14.612;2023-10-13T03:04:47;98811.78;;;13.14;100.00
21902;BME280;11115;46.038;14.612;2023-10-13T03:07:26;98814.88;;;13.12;100.00
21902;BME280;11115;46.038;14.612;2023-10-13T03:09:59;98825.34;;;13.15;100.00
21902;BME280;11115;46.038;14.612;2023-10-13T03:12:45;98829.91;;;13.11;100.00
21902;BME280;11115;46.038;14.612;2023-10-13T03:15:19;98823.28;;;13.21;100.00
21902;BME280;11115;46.038;14.612;2023-10-13T03:17:58;98824.09;;;13.21;100.00
21902;BME280;11115;46.038;14.612;2023-10-13T03:20:29;98777.34;;;12.92;100.00
21902;BME280;11115;46.038;14.612;2023-10-13T03:23:06;98826.22;;;13.24;100.00
21902;BME280;11115;46.038;14.612;2023-10-13T03:25:38;98828.69;;;13.26;100.00
21902;BME280;11115;46.038;14.612;2023-10-13T03:28:15;98823.91;;;13.18;100.00
21902;BME280;11115;46.038;14.612;2023-10-13T03:30:50;98830.28;;;13.18;100.00
21902;BME280;11115;46.038;14.612;2023-10-13T03:33:22;98829.16;;;13.19;100.00
21902;BME280;11115;46.038;14.612;2023-10-13T03:36:15;98830.78;;;13.20;100.00
21902;BME280;11115;46.038;14.612;2023-10-13T03:39:06;98832.03;;;13.14;100.00
21902;BME280;11115;46.038;14.612;2023-10-13T03:41:39;98824.41;;;13.20;100.00
21902;BME280;11115;46.038;14.612;2023-10-13T03:44:15;98827.81;;;13.17;100.00
21902;BME280;11115;46.038;14.612;2023-10-13T03:47:01;98821.44;;;13.16;100.00
21902;BME280;11115;46.038;14.612;2023-10-13T03:49:47;98826.72;;;13.26;100.00
21902;BME280;11115;46.038;14.612;2023-10-13T03:52:27;98820.75;;;13.33;100.00
21902;BME280;11115;46.038;14.612;2023-10-13T03:55:01;98821.56;;;13.33;100.00
21902;BME280;11115;46.038;14.612;2023-10-13T03:57:34;98823.03;;;13.31;100.00
21902;BME280;11115;46.038;14.612;2023-10-13T04:00:10;98817.66;;;13.34;100.00
21902;BME280;11115;46.038;14.612;2023-10-13T04:03:02;98821.59;;;13.42;100.00
21902;BME280;11115;46.038;14.612;2023-10-13T04:05:44;98824.06;;;13.44;100.00
21902;BME280;11115;46.038;14.612;2023-10-13T04:08:29;98824.53;;;13.46;100.00
21902;BME280;11115;46.038;14.612;2023-10-13T04:11:14;98821.75;;;13.46;100.00
21902;BME280;11115;46.038;14.612;2023-10-13T04:14:02;98828.63;;;13.48;100.00
21902;BME280;11115;46.038;14.612;2023-10-13T04:16:47;98827.31;;;13.46;100.00
21902;BME280;11115;46.038;14.612;2023-10-13T04:19:27;98826.06;;;13.52;100.00
21902;BME280;11115;46.038;14.612;2023-10-13T04:22:29;98825.19;;;13.43;100.00
21902;BME280;11115;46.038;14.612;2023-10-13T04:25:37;98827.28;;;13.37;100.00
21902;BME280;11115;46.038;14.612;2023-10-13T04:28:34;98823.56;;;13.42;100.00
21902;BME280;11115;46.038;14.612;2023-10-13T04:31:04;98818.16;;;13.45;100.00
21902;BME280;11115;46.038;14.612;2023-10-13T04:33:51;98838.63;;;13.49;100.00
21902;BME280;11115;46.038;14.612;2023-10-13T04:36:25;98832.06;;;13.45;100.00
21902;BME280;11115;46.038;14.612;2023-10-13T04:39:13;98825.84;;;13.40;100.00
21902;BME280;11115;46.038;14.612;2023-10-13T04:42:01;98828.44;;;13.36;100.00
21902;BME280;11115;46.038;14.612;2023-10-13T04:44:40;98829.75;;;13.39;100.00
21902;BME280;11115;46.038;14.612;2023-10-13T04:47:30;98835.13;;;13.35;100.00
21902;BME280;11115;46.038;14.612;2023-10-13T04:50:10;98833.16;;;13.35;100.00
21902;BME280;11115;46.038;14.612;2023-10-13T04:52:50;98831.72;;;13.16;100.00
21902;BME280;11115;46.038;14.612;2023-10-13T04:55:40;98833.09;;;13.27;100.00
21902;BME280;11115;46.038;14.612;2023-10-13T04:58:34;98829.38;;;13.09;100.00
21902;BME280;11115;46.038;14.612;2023-10-13T05:01:30;98785.41;;;12.80;100.00
21902;BME280;11115;46.038;14.612;2023-10-13T05:04:40;98843.22;;;13.00;100.00
21902;BME280;11115;46.038;14.612;2023-10-13T05:07:23;98838.84;;;13.08;100.00
21902;BME280;11115;46.038;14.612;2023-10-13T05:10:09;98843.88;;;13.20;100.00
21902;BME280;11115;46.038;14.612;2023-10-13T05:13:02;98846.03;;;13.09;100.00
21902;BME280;11115;46.038;14.612;2023-10-13T05:15:50;98853.63;;;13.17;100.00
21902;BME280;11115;46.038;14.612;2023-10-13T05:18:40;98853.50;;;13.22;100.00
21902;BME280;11115;46.038;14.612;2023-10-13T05:21:28;98864.81;;;13.26;100.00
21902;BME280;11115;46.038;14.612;2023-10-13T05:24:15;98851.63;;;13.31;100.00
21902;BME280;11115;46.038;14.612;2023-10-13T05:27:07;98856.78;;;13.24;100.00
21902;BME280;11115;46.038;14.612;2023-10-13T05:29:53;98860.53;;;13.20;100.00
21902;BME280;11115;46.038;14.612;2023-10-13T05:32:44;98876.69;;;13.18;100.00
21902;BME280;11115;46.038;14.612;2023-10-13T05:35:30;98874.03;;;13.13;100.00
21902;BME280;11115;46.038;14.612;2023-10-13T05:38:21;98877.81;;;13.17;100.00
21902;BME280;11115;46.038;14.612;2023-10-13T05:41:22;98880.66;;;13.25;100.00
21902;BME280;11115;46.038;14.612;2023-10-13T05:44:11;98885.72;;;13.23;100.00
21902;BME280;11115;46.038;14.612;2023-10-13T05:47:00;98888.56;;;13.32;100.00
21902;BME280;11115;46.038;14.612;2023-10-13T05:49:50;98877.81;;;13.17;100.00
21902;BME280;11115;46.038;14.612;2023-10-13T05:52:20;98888.91;;;13.17;100.00
21902;BME280;11115;46.038;14.612;2023-10-13T05:55:09;98887.69;;;13.23;100.00
21902;BME280;11115;46.038;14.612;2023-10-13T05:58:01;98884.91;;;13.23;100.00
21902;BME280;11115;46.038;14.612;2023-10-13T06:00:50;98893.16;;;13.14;100.00
21902;BME280;11115;46.038;14.612;2023-10-13T06:03:50;98894.47;;;13.17;100.00
21902;BME280;11115;46.038;14.612;2023-10-13T06:06:40;98893.47;;;13.13;100.00
21902;BME280;11115;46.038;14.612;2023-10-13T06:09:30;98897.56;;;13.15;100.00
21902;BME280;11115;46.038;14.612;2023-10-13T06:12:19;98906.63;;;13.21;100.00
21902;BME280;11115;46.038;14.612;2023-10-13T06:15:07;98873.94;;;13.04;100.00
21902;BME280;11115;46.038;14.612;2023-10-13T06:17:59;98904.66;;;13.21;100.00
21902;BME280;11115;46.038;14.612;2023-10-13T06:20:46;98903.84;;;13.21;100.00
21902;BME280;11115;46.038;14.612;2023-10-13T06:23:41;98905.28;;;13.41;100.00
21902;BME280;11115;46.038;14.612;2023-10-13T06:26:29;98906.94;;;13.19;100.00
21902;BME280;11115;46.038;14.612;2023-10-13T06:29:16;98893.47;;;13.13;100.00
21902;BME280;11115;46.038;14.612;2023-10-13T06:31:48;98900.59;;;13.05;100.00
21902;BME280;11115;46.038;14.612;2023-10-13T06:34:28;98893.13;;;12.92;100.00
21902;BME280;11115;46.038;14.612;2023-10-13T06:37:13;98919.19;;;13.04;100.00
21902;BME280;11115;46.038;14.612;2023-10-13T06:40:02;98918.38;;;13.04;100.00
21902;BME280;11115;46.038;14.612;2023-10-13T06:42:34;98927.00;;;13.16;100.00
21902;BME280;11115;46.038;14.612;2023-10-13T06:45:14;98929.25;;;13.14;100.00
21902;BME280;11115;46.038;14.612;2023-10-13T06:47:52;98935.09;;;13.26;100.00
21902;BME280;11115;46.038;14.612;2023-10-13T06:50:26;98936.22;;;13.25;100.00
21902;BME280;11115;46.038;14.612;2023-10-13T06:53:09;98944.75;;;13.29;100.00
21902;BME280;11115;46.038;14.612;2023-10-13T06:55:45;98945.19;;;13.22;100.00
21902;BME280;11115;46.038;14.612;2023-10-13T06:58:31;98943.75;;;13.25;100.00
21902;BME280;11115;46.038;14.612;2023-10-13T07:01:10;98938.75;;;13.13;100.00
21902;BME280;11115;46.038;14.612;2023-10-13T07:03:53;98945.94;;;13.14;100.00
21902;BME280;11115;46.038;14.612;2023-10-13T07:06:22;98953.53;;;13.22;100.00
21902;BME280;11115;46.038;14.612;2023-10-13T07:09:02;98950.84;;;13.31;100.00
21902;BME280;11115;46.038;14.612;2023-10-13T07:11:45;98947.09;;;13.35;100.00
21902;BME280;11115;46.038;14.612;2023-10-13T07:14:22;98949.75;;;13.41;100.00
21902;BME280;11115;46.038;14.612;2023-10-13T07:16:56;98955.50;;;13.44;100.00
21902;BME280;11115;46.038;14.612;2023-10-13T07:19:28;98947.53;;;13.51;100.00
21902;BME280;11115;46.038;14.612;2023-10-13T07:22:08;98945.38;;;13.48;100.00
21902;BME280;11115;46.038;14.612;2023-10-13T07:24:46;98949.56;;;13.37;100.00
21902;BME280;11115;46.038;14.612;2023-10-13T07:27:23;98949.31;;;13.25;100.00
21902;BME280;11115;46.038;14.612;2023-10-13T07:29:56;98924.47;;;13.28;100.00
21902;BME280;11115;46.038;14.612;2023-10-13T07:32:43;98948.22;;;13.57;100.00
21902;BME280;11115;46.038;14.612;2023-10-13T07:35:16;98950.03;;;13.61;100.00
21902;BME280;11115;46.038;14.612;2023-10-13T07:37:53;98955.28;;;13.63;100.00
21902;BME280;11115;46.038;14.612;2023-10-13T07:40:30;98948.38;;;13.83;100.00
21902;BME280;11115;46.038;14.612;2023-10-13T07:43:24;98962.59;;;13.81;100.00
21902;BME280;11115;46.038;14.612;2023-10-13T07:45:59;98950.72;;;13.89;100.00
21902;BME280;11115;46.038;14.612;2023-10-13T07:48:39;98967.69;;;13.88;100.00
21902;BME280;11115;46.038;14.612;2023-10-13T07:51:13;98971.19;;;13.93;100.00
21902;BME280;11115;46.038;14.612;2023-10-13T07:53:45;98967.84;;;13.83;100.00
21902;BME280;11115;46.038;14.612;2023-10-13T07:56:21;98960.13;;;13.80;100.00
21902;BME280;11115;46.038;14.612;2023-10-13T07:58:56;98957.91;;;13.90;100.00
21902;BME280;11115;46.038;14.612;2023-10-13T08:01:31;98959.88;;;14.30;100.00
21902;BME280;11115;46.038;14.612;2023-10-13T08:04:04;98956.47;;;14.41;100.00
21902;BME280;11115;46.038;14.612;2023-10-13T08:06:41;98965.56;;;14.64;100.00
21902;BME280;11115;46.038;14.612;2023-10-13T08:09:14;98952.53;;;14.91;100.00
21902;BME280;11115;46.038;14.612;2023-10-13T08:12:12;98942.34;;;15.21;100.00
21902;BME280;11115;46.038;14.612;2023-10-13T08:14:53;98939.56;;;15.21;100.00
21902;BME280;11115;46.038;14.612;2023-10-13T08:17:43;98944.00;;;15.30;100.00
21902;BME280;11115;46.038;14.612;2023-10-13T08:20:16;98943.31;;;15.42;100.00
21902;BME280;11115;46.038;14.612;2023-10-13T08:22:47;98943.03;;;15.43;100.00
21902;BME280;11115;46.038;14.612;2023-10-13T08:25:25;98934.31;;;15.62;100.00
21902;BME280;11115;46.038;14.612;2023-10-13T08:28:18;98937.59;;;15.47;100.00
21902;BME280;11115;46.038;14.612;2023-10-13T08:31:09;98943.63;;;15.58;100.00
21902;BME280;11115;46.038;14.612;2023-10-13T08:33:51;98949.47;;;15.99;100.00
21902;BME280;11115;46.038;14.612;2023-10-13T08:36:28;98948.09;;;16.14;100.00
21902;BME280;11115;46.038;14.612;2023-10-13T08:39:10;98940.19;;;16.25;100.00
21902;BME280;11115;46.038;14.612;2023-10-13T08:42:13;98939.84;;;16.26;100.00
21902;BME280;11115;46.038;14.612;2023-10-13T08:44:46;98940.59;;;16.35;100.00
21902;BME280;11115;46.038;14.612;2023-10-13T08:47:20;98946.97;;;16.45;100.00
21902;BME280;11115;46.038;14.612;2023-10-13T08:49:52;98945.28;;;16.52;100.00
21902;BME280;11115;46.038;14.612;2023-10-13T08:52:39;98943.94;;;16.67;100.00
21902;BME280;11115;46.038;14.612;2023-10-13T08:55:32;98940.09;;;17.01;100.00
21902;BME280;11115;46.038;14.612;2023-10-13T08:58:34;98935.22;;;17.10;100.00
21902;BME280;11115;46.038;14.612;2023-10-13T09:01:33;98931.88;;;17.38;100.00
21902;BME280;11115;46.038;14.612;2023-10-13T09:04:09;98928.69;;;17.60;100.00
21902;BME280;11115;46.038;14.612;2023-10-13T09:06:58;98916.06;;;17.75;100.00
21902;BME280;11115;46.038;14.612;2023-10-13T09:09:46;98923.22;;;17.97;100.00
21902;BME280;11115;46.038;14.612;2023-10-13T09:12:42;98914.94;;;18.12;100.00
21902;BME280;11115;46.038;14.612;2023-10-13T09:15:31;98916.84;;;18.45;100.00
21902;BME280;11115;46.038;14.612;2023-10-13T09:18:25;98918.47;;;18.46;100.00
21902;BME280;11115;46.038;14.612;2023-10-13T09:21:22;98924.44;;;18.81;100.00
21902;BME280;11115;46.038;14.612;2023-10-13T09:24:24;98926.16;;;18.86;100.00
21902;BME280;11115;46.038;14.612;2023-10-13T09:26:58;98921.56;;;19.05;100.00
21902;BME280;11115;46.038;14.612;2023-10-13T09:29:39;98924.44;;;19.21;100.00
21902;BME280;11115;46.038;14.612;2023-10-13T09:32:32;98920.06;;;19.36;100.00
21902;BME280;11115;46.038;14.612;2023-10-13T09:35:21;98919.16;;;19.60;100.00
21902;BME280;11115;46.038;14.612;2023-10-13T09:37:56;98918.41;;;19.75;100.00
21902;BME280;11115;46.038;14.612;2023-10-13T09:40:29;98919.38;;;19.67;100.00
21902;BME280;11115;46.038;14.612;2023-10-13T09:43:03;98913.88;;;20.02;100.00
21902;BME280;11115;46.038;14.612;2023-10-13T09:45:47;98916.97;;;19.97;100.00
21902;BME280;11115;46.038;14.612;2023-10-13T09:51:04;98840.16;;;19.74;100.00
21902;BME280;11115;46.038;14.612;2023-10-13T09:53:45;98900.38;;;20.39;100.00
21902;BME280;11115;46.038;14.612;2023-10-13T09:56:35;98902.50;;;20.42;100.00
21902;BME280;11115;46.038;14.612;2023-10-13T09:59:29;98897.97;;;20.53;100.00
21902;BME280;11115;46.038;14.612;2023-10-13T10:02:11;98899.66;;;20.74;100.00
21902;BME280;11115;46.038;14.612;2023-10-13T10:04:52;98889.38;;;21.01;100.00
21902;BME280;11115;46.038;14.612;2023-10-13T10:07:28;98890.19;;;21.01;100.00
21902;BME280;11115;46.038;14.612;2023-10-13T10:09:57;98890.69;;;21.03;100.00
21902;BME280;11115;46.038;14.612;2023-10-13T10:15:26;98889.19;;;21.09;100.00
21902;BME280;11115;46.038;14.612;2023-10-13T10:18:18;98885.38;;;21.37;100.00
21902;BME280;11115;46.038;14.612;2023-10-13T10:21:04;98880.69;;;21.64;100.00
21902;BME280;11115;46.038;14.612;2023-10-13T10:23:48;98877.25;;;21.74;100.00
21902;BME280;11115;46.038;14.612;2023-10-13T10:26:23;98881.13;;;22.08;100.00
21902;BME280;11115;46.038;14.612;2023-10-13T10:29:14;98880.72;;;22.32;100.00
21902;BME280;11115;46.038;14.612;2023-10-13T10:31:58;98866.44;;;22.45;100.00
21902;BME280;11115;46.038;14.612;2023-10-13T10:34:33;98858.41;;;22.47;100.00
21902;BME280;11115;46.038;14.612;2023-10-13T10:37:11;98852.94;;;22.57;100.00
21902;BME280;11115;46.038;14.612;2023-10-13T10:39:44;98854.28;;;22.67;100.00
21902;BME280;11115;46.038;14.612;2023-10-13T10:42:24;98846.47;;;22.83;100.00
21902;BME280;11115;46.038;14.612;2023-10-13T10:45:08;98845.72;;;22.86;100.00
21902;BME280;11115;46.038;14.612;2023-10-13T10:47:49;98840.91;;;23.54;100.00
21902;BME280;11115;46.038;14.612;2023-10-13T10:50:31;98838.38;;;23.79;100.00
21902;BME280;11115;46.038;14.612;2023-10-13T10:53:05;98824.22;;;23.75;100.00
21902;BME280;11115;46.038;14.612;2023-10-13T10:55:41;98830.75;;;23.83;100.00
21902;BME280;11115;46.038;14.612;2023-10-13T10:58:24;98806.97;;;23.50;100.00
21902;BME280;11115;46.038;14.612;2023-10-13T11:01:05;98823.31;;;23.68;100.00
21902;BME280;11115;46.038;14.612;2023-10-13T11:03:38;98825.41;;;23.37;100.00
21902;BME280;11115;46.038;14.612;2023-10-13T11:06:12;98808.91;;;23.43;100.00
21902;BME280;11115;46.038;14.612;2023-10-13T11:09:03;98810.97;;;23.46;100.00
21902;BME280;11115;46.038;14.612;2023-10-13T11:11:47;98811.97;;;23.60;100.00
21902;BME280;11115;46.038;14.612;2023-10-13T11:14:28;98806.47;;;23.75;100.00
21902;BME280;11115;46.038;14.612;2023-10-13T11:17:01;98809.75;;;23.47;100.00
21902;BME280;11115;46.038;14.612;2023-10-13T11:19:47;98802.53;;;23.90;100.00
21902;BME280;11115;46.038;14.612;2023-10-13T11:22:22;98801.69;;;23.86;100.00
21902;BME280;11115;46.038;14.612;2023-10-13T11:25:22;98796.31;;;23.70;100.00
21902;BME280;11115;46.038;14.612;2023-10-13T11:28:15;98797.00;;;24.01;100.00
21902;BME280;11115;46.038;14.612;2023-10-13T11:30:58;98791.69;;;23.92;100.00
21902;BME280;11115;46.038;14.612;2023-10-13T11:33:44;98779.06;;;23.79;100.00
21902;BME280;11115;46.038;14.612;2023-10-13T11:36:15;98778.44;;;24.03;100.00
21902;BME280;11115;46.038;14.612;2023-10-13T11:38:58;98781.13;;;24.33;100.00
21902;BME280;11115;46.038;14.612;2023-10-13T11:41:34;98784.78;;;23.89;100.00
21902;BME280;11115;46.038;14.612;2023-10-13T11:44:19;98774.59;;;23.78;100.00
21902;BME280;11115;46.038;14.612;2023-10-13T11:47:13;98734.13;;;23.63;100.00
21902;BME280;11115;46.038;14.612;2023-10-13T11:50:00;98776.69;;;23.88;100.00
21902;BME280;11115;46.038;14.612;2023-10-13T11:52:33;98768.06;;;24.18;100.00
21902;BME280;11115;46.038;14.612;2023-10-13T11:55:17;98770.97;;;24.29;100.00
21902;BME280;11115;46.038;14.612;2023-10-13T11:57:51;98763.13;;;24.08;100.00
21902;BME280;11115;46.038;14.612;2023-10-13T12:00:27;98766.38;;;24.10;100.00
21902;BME280;11115;46.038;14.612;2023-10-13T12:03:19;98761.66;;;24.28;100.00
21902;BME280;11115;46.038;14.612;2023-10-13T12:06:08;98756.91;;;24.36;100.00
21902;BME280;11115;46.038;14.612;2023-10-13T12:08:53;98748.81;;;24.31;100.00
21902;BME280;11115;46.038;14.612;2023-10-13T12:11:42;98747.38;;;24.07;100.00
21902;BME280;11115;46.038;14.612;2023-10-13T12:14:20;98750.47;;;24.42;100.00
21902;BME280;11115;46.038;14.612;2023-10-13T12:16:58;98744.91;;;24.57;100.00
21902;BME280;11115;46.038;14.612;2023-10-13T12:19:40;98745.81;;;24.82;100.00
21902;BME280;11115;46.038;14.612;2023-10-13T12:22:24;98746.28;;;24.98;100.00
21902;BME280;11115;46.038;14.612;2023-10-13T12:25:02;98730.13;;;24.95;100.00
21902;BME280;11115;46.038;14.612;2023-10-13T12:27:47;98743.84;;;24.90;100.00
21902;BME280;11115;46.038;14.612;2023-10-13T12:30:26;98741.84;;;24.94;100.00
21902;BME280;11115;46.038;14.612;2023-10-13T12:33:17;98734.66;;;25.18;100.00
21902;BME280;11115;46.038;14.612;2023-10-13T12:36:05;98736.03;;;24.65;100.00
21902;BME280;11115;46.038;14.612;2023-10-13T12:38:45;98734.56;;;24.93;100.00
21902;BME280;11115;46.038;14.612;2023-10-13T12:41:47;98730.34;;;24.55;100.00
21902;BME280;11115;46.038;14.612;2023-10-13T12:44:35;98740.56;;;24.77;100.00
21902;BME280;11115;46.038;14.612;2023-10-13T12:47:23;98732.47;;;24.82;100.00
21902;BME280;11115;46.038;14.612;2023-10-13T12:50:13;98729.63;;;24.75;100.00
21902;BME280;11115;46.038;14.612;2023-10-13T12:52:53;98732.44;;;24.68;100.00
21902;BME280;11115;46.038;14.612;2023-10-13T12:55:24;98739.91;;;25.19;100.00
21902;BME280;11115;46.038;14.612;2023-10-13T12:57:55;98733.09;;;25.52;100.00
21902;BME280;11115;46.038;14.612;2023-10-13T13:00:28;98733.91;;;25.46;100.00
21902;BME280;11115;46.038;14.612;2023-10-13T13:03:04;98732.31;;;26.01;100.00
21902;BME280;11115;46.038;14.612;2023-10-13T13:05:40;98730.72;;;25.90;100.00
21902;BME280;11115;46.038;14.612;2023-10-13T13:08:21;98731.53;;;25.97;100.00
21902;BME280;11115;46.038;14.612;2023-10-13T13:10:51;98733.16;;;25.88;100.00
21902;BME280;11115;46.038;14.612;2023-10-13T13:13:31;98712.09;;;25.96;100.00
21902;BME280;11115;46.038;14.612;2023-10-13T13:16:03;98720.13;;;26.33;100.00
21902;BME280;11115;46.038;14.612;2023-10-13T13:18:33;98726.28;;;25.89;100.00
21902;BME280;11115;46.038;14.612;2023-10-13T13:21:16;98717.75;;;25.82;100.00
21902;BME280;11115;46.038;14.612;2023-10-13T13:23:51;98722.22;;;25.68;100.00
21902;BME280;11115;46.038;14.612;2023-10-13T13:26:28;98705.16;;;25.36;100.00
21902;BME280;11115;46.038;14.612;2023-10-13T13:29:00;98709.63;;;25.30;100.00
21902;BME280;11115;46.038;14.612;2023-10-13T13:31:34;98707.16;;;25.15;100.00
21902;BME280;11115;46.038;14.612;2023-10-13T13:34:18;98697.00;;;25.03;100.00
21902;BME280;11115;46.038;14.612;2023-10-13T13:36:51;98699.78;;;24.92;100.00
21902;BME280;11115;46.038;14.612;2023-10-13T13:39:34;98691.63;;;24.73;100.00
21902;BME280;11115;46.038;14.612;2023-10-13T13:42:16;98689.56;;;24.66;100.00
21902;BME280;11115;46.038;14.612;2023-10-13T13:44:50;98683.41;;;24.43;100.00
21902;BME280;11115;46.038;14.612;2023-10-13T13:47:20;98686.72;;;24.56;100.00
21902;BME280;11115;46.038;14.612;2023-10-13T13:49:57;98687.72;;;24.22;100.00
21902;BME280;11115;46.038;14.612;2023-10-13T13:52:28;98683.78;;;24.31;100.00
21902;BME280;11115;46.038;14.612;2023-10-13T13:55:17;98619.97;;;23.68;100.00
21902;BME280;11115;46.038;14.612;2023-10-13T13:57:44;98684.00;;;24.08;100.00